createdAt,value
2018-02-14T00:02:04.371Z,38.42
2018-02-14T00:04:30.211Z,39.27
2018-02-14T00:06:56.035Z,38.38
2018-02-14T00:09:21.866Z,38.28
2018-02-14T00:11:47.692Z,38.34
2018-02-14T00:14:13.515Z,38.42
2018-02-14T00:16:39.334Z,38.48
2018-02-14T00:19:05.159Z,38.39
2018-02-14T00:21:30.991Z,38.60
2018-02-14T00:23:56.814Z,38.30
2018-02-14T00:26:22.640Z,38.08
2018-02-14T00:28:48.499Z,38.13
2018-02-14T00:31:14.325Z,38.13
2018-02-14T00:33:40.147Z,38.05
2018-02-14T00:36:05.972Z,38.41
2018-02-14T00:38:31.793Z,38.26
2018-02-14T00:40:57.620Z,38.32
2018-02-14T00:43:23.447Z,38.05
2018-02-14T00:45:49.266Z,38.01
2018-02-14T00:48:15.082Z,37.92
2018-02-14T00:50:40.898Z,38.37
2018-02-14T00:53:07.338Z,38.29
2018-02-14T00:55:33.159Z,38.15
2018-02-14T00:57:58.980Z,38.30
2018-02-14T01:00:24.863Z,38.14
2018-02-14T01:02:50.682Z,38.08
2018-02-14T01:05:16.515Z,37.95
2018-02-14T01:07:42.342Z,38.24
2018-02-14T01:10:08.206Z,38.24
2018-02-14T01:12:34.034Z,37.97
2018-02-14T01:14:59.910Z,38.20
2018-02-14T01:17:25.728Z,38.22
2018-02-14T01:19:57.738Z,38.00
2018-02-14T01:22:23.638Z,38.03
2018-02-14T01:24:49.550Z,38.04
2018-02-14T01:27:15.394Z,38.43
2018-02-14T01:29:41.387Z,38.45
2018-02-14T01:32:07.823Z,38.47
2018-02-14T01:34:34.215Z,38.64
2018-02-14T01:37:00.552Z,38.75
2018-02-14T01:39:26.968Z,38.76
2018-02-14T01:41:53.540Z,38.63
2018-02-14T01:44:19.992Z,38.28
2018-02-14T01:46:46.464Z,38.09
2018-02-14T01:49:12.963Z,38.17
2018-02-14T01:51:39.369Z,37.93
2018-02-14T01:54:05.992Z,38.07
2018-02-14T01:56:32.487Z,38.01
2018-02-14T01:58:58.882Z,38.17
2018-02-14T02:01:25.386Z,38.14
2018-02-14T02:03:51.926Z,37.95
2018-02-14T02:06:18.517Z,37.88
2018-02-14T02:08:45.053Z,37.91
2018-02-14T02:11:11.411Z,37.85
2018-02-14T02:13:37.923Z,37.91
2018-02-14T02:16:04.484Z,38.11
2018-02-14T02:18:30.999Z,37.63
2018-02-14T02:20:57.402Z,37.53
2018-02-14T02:23:23.882Z,37.51
2018-02-14T02:25:50.340Z,37.47
2018-02-14T02:28:16.731Z,37.39
2018-02-14T02:30:43.143Z,37.64
2018-02-14T02:33:09.707Z,37.52
2018-02-14T02:35:36.261Z,37.51
2018-02-14T02:38:02.972Z,37.72
2018-02-14T02:40:31.429Z,37.55
2018-02-14T02:42:57.873Z,37.51
2018-02-14T02:45:25.299Z,37.72
2018-02-14T02:47:51.841Z,37.65
2018-02-14T02:50:18.187Z,37.43
2018-02-14T02:52:44.789Z,37.28
2018-02-14T02:55:12.112Z,37.31
2018-02-14T02:57:38.639Z,37.22
2018-02-14T03:00:06.051Z,37.42
2018-02-14T03:02:32.456Z,37.65
2018-02-14T03:04:58.850Z,37.40
2018-02-14T03:07:26.376Z,37.34
2018-02-14T03:09:52.742Z,37.28
2018-02-14T03:12:19.146Z,37.15
2018-02-14T03:14:46.340Z,37.47
2018-02-14T03:17:12.717Z,37.05
2018-02-14T03:19:39.207Z,36.87
2018-02-14T03:22:06.523Z,36.71
2018-02-14T03:24:33.694Z,37.60
2018-02-14T03:27:00.188Z,37.43
2018-02-14T03:29:26.664Z,37.44
2018-02-14T03:31:53.056Z,37.38
2018-02-14T03:34:19.623Z,37.48
2018-02-14T03:36:46.059Z,37.50
2018-02-14T03:39:12.527Z,37.47
2018-02-14T03:41:39.053Z,37.49
2018-02-14T03:44:05.649Z,37.55
2018-02-14T03:46:32.895Z,37.48
2018-02-14T03:49:00.134Z,37.18
2018-02-14T03:51:26.518Z,37.20
2018-02-14T03:53:53.233Z,37.21
2018-02-14T03:56:20.677Z,36.97
2018-02-14T03:58:47.873Z,37.27
2018-02-14T04:01:14.491Z,37.29
2018-02-14T04:03:41.075Z,37.10
2018-02-14T04:06:07.508Z,37.22
2018-02-14T04:08:34.031Z,37.36
2018-02-14T04:11:00.634Z,36.95
2018-02-14T04:13:28.068Z,37.29
2018-02-14T04:15:54.469Z,37.35
2018-02-14T04:18:20.929Z,37.06
2018-02-14T04:20:48.205Z,36.97
2018-02-14T04:23:14.731Z,36.95
2018-02-14T04:25:41.095Z,37.05
2018-02-14T04:28:08.550Z,36.81
2018-02-14T04:30:35.009Z,36.92
2018-02-14T04:33:01.383Z,37.20
2018-02-14T04:35:27.930Z,36.94
2018-02-14T04:37:54.210Z,36.98
2018-02-14T04:40:21.632Z,36.97
2018-02-14T04:42:49.164Z,37.16
2018-02-14T04:45:16.242Z,37.31
2018-02-14T04:47:43.319Z,37.27
2018-02-14T04:50:10.830Z,37.45
2018-02-14T04:52:37.288Z,37.24
2018-02-14T04:55:10.233Z,37.11
2018-02-14T04:57:37.534Z,37.17
2018-02-14T05:00:09.003Z,37.34
2018-02-14T05:02:35.531Z,37.32
2018-02-14T05:05:01.867Z,37.12
2018-02-14T05:07:29.319Z,37.00
2018-02-14T05:09:55.758Z,37.04
2018-02-14T05:12:22.097Z,37.15
2018-02-14T05:14:49.524Z,37.30
2018-02-14T05:17:16.948Z,37.46
2018-02-14T05:19:44.266Z,36.88
2018-02-14T05:22:10.886Z,36.97
2018-02-14T05:24:37.352Z,37.23
2018-02-14T05:27:03.681Z,37.11
2018-02-14T05:29:30.291Z,36.98
2018-02-14T05:31:56.827Z,37.41
2018-02-14T05:34:24.239Z,36.75
2018-02-14T05:36:50.518Z,36.95
2018-02-14T05:39:17.862Z,36.96
2018-02-14T05:41:44.368Z,36.82
2018-02-14T05:44:10.862Z,36.83
2018-02-14T05:46:37.187Z,36.86
2018-02-14T05:49:03.891Z,36.90
2018-02-14T05:51:31.414Z,36.87
2018-02-14T05:53:58.023Z,36.81
2018-02-14T05:56:24.502Z,36.79
2018-02-14T05:58:51.095Z,36.80
2018-02-14T06:01:17.743Z,36.99
2018-02-14T06:03:44.287Z,36.61
2018-02-14T06:06:10.695Z,36.95
2018-02-14T06:08:36.878Z,36.91
2018-02-14T06:11:03.378Z,36.98
2018-02-14T06:13:30.623Z,36.96
2018-02-14T06:15:56.527Z,36.92
2018-02-14T06:18:23.434Z,37.23
2018-02-14T06:20:49.275Z,37.07
2018-02-14T06:23:15.098Z,37.19
2018-02-14T06:25:40.914Z,37.15
2018-02-14T06:28:06.733Z,37.16
2018-02-14T06:30:36.373Z,37.11
2018-02-14T06:33:02.186Z,37.15
2018-02-14T06:35:28.002Z,36.98
2018-02-14T06:37:53.810Z,36.85
2018-02-14T06:40:19.648Z,36.96
2018-02-14T06:42:45.479Z,36.79
2018-02-14T06:45:11.418Z,36.76
2018-02-14T06:47:37.235Z,36.84
2018-02-14T06:50:03.055Z,36.79
2018-02-14T06:52:28.886Z,36.66
2018-02-14T06:54:54.699Z,36.81
2018-02-14T06:57:20.510Z,36.83
2018-02-14T06:59:46.326Z,36.81
2018-02-14T07:02:13.029Z,36.97
2018-02-14T07:04:38.862Z,37.39
2018-02-14T07:07:04.710Z,37.22
2018-02-14T07:09:31.363Z,37.10
2018-02-14T07:11:57.209Z,36.83
2018-02-14T07:14:23.018Z,36.70
2018-02-14T07:16:49.774Z,36.78
2018-02-14T07:19:15.585Z,36.50
2018-02-14T07:21:42.195Z,36.76
2018-02-14T07:24:08.830Z,36.75
2018-02-14T07:26:35.726Z,36.70
2018-02-14T07:29:01.535Z,36.76
2018-02-14T07:31:27.414Z,36.99
2018-02-14T07:33:54.214Z,37.02
2018-02-14T07:36:20.023Z,36.90
2018-02-14T07:38:45.878Z,36.81
2018-02-14T07:41:11.690Z,36.95
2018-02-14T07:43:37.509Z,36.96
2018-02-14T07:46:03.330Z,37.04
2018-02-14T07:48:29.161Z,36.96
2018-02-14T07:50:55.830Z,36.82
2018-02-14T07:53:21.654Z,37.06
2018-02-14T07:55:48.417Z,36.90
2018-02-14T07:58:14.230Z,37.07
2018-02-14T08:00:41.081Z,36.97
2018-02-14T08:03:06.940Z,37.05
2018-02-14T08:05:33.609Z,36.91
2018-02-14T08:07:59.415Z,36.88
2018-02-14T08:10:25.314Z,36.69
2018-02-14T08:12:51.119Z,36.65
2018-02-14T08:15:16.922Z,36.54
2018-02-14T08:17:43.663Z,36.73
2018-02-14T08:20:10.495Z,36.76
2018-02-14T08:22:37.291Z,36.56
2018-02-14T08:25:03.163Z,36.55
2018-02-14T08:27:28.975Z,36.67
2018-02-14T08:29:54.861Z,36.66
2018-02-14T08:32:21.509Z,36.70
2018-02-14T08:34:48.310Z,36.71
2018-02-14T08:37:14.158Z,36.44
2018-02-14T08:39:41.134Z,36.66
2018-02-14T08:42:07.967Z,36.75
2018-02-14T08:44:34.763Z,37.01
2018-02-14T08:47:01.554Z,37.05
2018-02-14T08:49:28.322Z,36.98
2018-02-14T08:51:54.986Z,36.87
2018-02-14T08:54:21.782Z,37.20
2018-02-14T08:56:48.594Z,36.86
2018-02-14T08:59:14.400Z,36.96
2018-02-14T09:01:40.209Z,37.08
2018-02-14T09:04:06.845Z,37.17
2018-02-14T09:06:32.650Z,37.48
2018-02-14T09:08:59.378Z,37.23
2018-02-14T09:11:26.166Z,36.99
2018-02-14T09:13:52.918Z,37.23
2018-02-14T09:16:18.721Z,37.40
2018-02-14T09:18:44.643Z,37.50
2018-02-14T09:21:10.505Z,37.09
2018-02-14T09:23:36.311Z,37.36
2018-02-14T09:26:02.120Z,37.21
2018-02-14T09:28:27.934Z,37.15
2018-02-14T09:30:53.741Z,37.11
2018-02-14T09:33:20.493Z,37.15
2018-02-14T09:35:46.298Z,37.57
2018-02-14T09:38:12.959Z,36.90
2018-02-14T09:40:38.762Z,36.82
2018-02-14T09:43:04.569Z,37.64
2018-02-14T09:45:30.427Z,37.29
2018-02-14T09:47:57.168Z,36.95
2018-02-14T09:50:22.965Z,36.85
2018-02-14T09:52:48.773Z,36.89
2018-02-14T09:55:14.576Z,37.12
2018-02-14T09:57:40.381Z,37.23
2018-02-14T10:00:06.233Z,37.45
2018-02-14T10:02:32.049Z,37.51
2018-02-14T10:04:57.856Z,37.71
2018-02-14T10:07:23.670Z,37.46
2018-02-14T10:09:50.490Z,37.53
2018-02-14T10:12:16.301Z,37.19
2018-02-14T10:14:42.115Z,37.48
2018-02-14T10:17:07.915Z,37.67
2018-02-14T10:19:33.722Z,37.22
2018-02-14T10:21:59.533Z,37.32
2018-02-14T10:24:25.334Z,37.17
2018-02-14T10:26:51.173Z,37.30
2018-02-14T10:29:16.988Z,37.18
2018-02-14T10:31:42.817Z,37.37
2018-02-14T10:34:08.616Z,37.46
2018-02-14T10:36:34.413Z,37.41
2018-02-14T10:39:00.225Z,37.74
2018-02-14T10:41:26.939Z,37.71
2018-02-14T10:43:52.791Z,37.69
2018-02-14T10:46:19.410Z,37.75
2018-02-14T10:48:45.276Z,37.45
2018-02-14T10:51:11.459Z,38.07
2018-02-14T10:53:37.261Z,37.70
2018-02-14T10:56:03.108Z,37.78
2018-02-14T10:58:29.875Z,37.71
2018-02-14T11:01:01.643Z,37.69
2018-02-14T11:03:34.554Z,37.60
2018-02-14T11:06:07.461Z,37.45
2018-02-14T11:08:34.242Z,37.89
2018-02-14T11:11:00.097Z,37.65
2018-02-14T11:13:26.795Z,37.85
2018-02-14T11:15:52.630Z,37.66
2018-02-14T11:18:19.342Z,37.43
2018-02-14T11:20:45.934Z,37.49
2018-02-14T11:23:12.793Z,37.83
2018-02-14T11:25:39.511Z,37.53
2018-02-14T11:28:05.325Z,37.44
2018-02-14T11:30:31.166Z,37.46
2018-02-14T11:32:57.814Z,37.69
2018-02-14T11:35:24.539Z,37.51
2018-02-14T11:37:51.466Z,37.43
2018-02-14T11:40:18.153Z,37.12
2018-02-14T11:42:44.056Z,37.07
2018-02-14T11:45:10.706Z,37.15
2018-02-14T11:47:36.513Z,36.80
2018-02-14T11:50:02.324Z,36.98
2018-02-14T11:52:28.826Z,37.89
2018-02-14T11:54:54.678Z,37.57
2018-02-14T11:57:21.339Z,36.82
2018-02-14T11:59:48.105Z,37.66
2018-02-14T12:02:14.889Z,37.45
2018-02-14T12:04:40.690Z,37.57
2018-02-14T12:07:07.342Z,37.47
2018-02-14T12:09:34.125Z,37.69
2018-02-14T12:12:00.901Z,38.34
2018-02-14T12:14:26.702Z,38.59
2018-02-14T12:16:53.585Z,38.47
2018-02-14T12:19:20.202Z,37.63
2018-02-14T12:21:46.042Z,38.50
2018-02-14T12:24:11.882Z,38.71
2018-02-14T12:26:38.503Z,38.02
2018-02-14T12:29:04.341Z,38.67
2018-02-14T12:31:30.967Z,38.21
2018-02-14T12:33:57.714Z,37.62
2018-02-14T12:36:23.557Z,37.14
2018-02-14T12:38:49.397Z,37.09
2018-02-14T12:41:16.137Z,36.73
2018-02-14T12:43:42.926Z,36.89
2018-02-14T12:46:08.731Z,37.29
2018-02-14T12:48:35.416Z,38.17
2018-02-14T12:51:02.048Z,38.46
2018-02-14T12:53:28.866Z,37.27
2018-02-14T12:55:54.837Z,36.88
2018-02-14T12:58:21.615Z,38.23
2018-02-14T13:00:48.418Z,38.38
2018-02-14T13:03:15.236Z,38.48
2018-02-14T13:05:41.113Z,38.94
2018-02-14T13:08:07.915Z,39.63
2018-02-14T13:10:33.771Z,38.07
2018-02-14T13:13:00.375Z,37.63
2018-02-14T13:15:26.177Z,37.54
2018-02-14T13:17:52.980Z,37.75
2018-02-14T13:20:18.821Z,36.70
2018-02-14T13:22:45.485Z,36.80
2018-02-14T13:25:11.334Z,38.52
2018-02-14T13:27:38.127Z,37.56
2018-02-14T13:30:03.976Z,37.72
2018-02-14T13:32:29.817Z,38.47
2018-02-14T13:34:56.448Z,38.12
2018-02-14T13:37:23.273Z,38.18
2018-02-14T13:39:49.937Z,37.43
2018-02-14T13:42:15.841Z,37.66
2018-02-14T13:44:42.489Z,37.77
2018-02-14T13:47:09.234Z,38.83
2018-02-14T13:49:36.010Z,38.02
2018-02-14T13:52:01.809Z,38.28
2018-02-14T13:54:27.658Z,37.67
2018-02-14T13:56:53.470Z,37.73
2018-02-14T13:59:19.304Z,37.51
2018-02-14T14:01:45.105Z,37.62
2018-02-14T14:04:10.909Z,37.68
2018-02-14T14:06:37.713Z,37.16
2018-02-14T14:09:03.549Z,39.03
2018-02-14T14:11:29.347Z,38.56
2018-02-14T14:13:55.154Z,37.78
2018-02-14T14:16:20.958Z,38.24
2018-02-14T14:18:46.772Z,37.93
2018-02-14T14:21:12.586Z,38.17
2018-02-14T14:23:38.396Z,38.06
2018-02-14T14:26:05.046Z,37.98
2018-02-14T14:28:30.861Z,37.96
2018-02-14T14:30:56.671Z,38.81
2018-02-14T14:33:22.482Z,37.35
2018-02-14T14:35:48.286Z,36.93
2018-02-14T14:38:14.107Z,37.68
2018-02-14T14:40:39.909Z,38.00
2018-02-14T14:43:05.724Z,38.54
2018-02-14T14:45:31.529Z,37.86
2018-02-14T14:47:57.345Z,37.84
2018-02-14T14:50:25.012Z,37.86
2018-02-14T14:52:50.839Z,38.13
2018-02-14T14:55:16.685Z,37.67
2018-02-14T14:57:43.437Z,38.66
2018-02-14T15:00:09.253Z,39.30
2018-02-14T15:02:35.050Z,38.82
2018-02-14T15:05:00.859Z,38.23
2018-02-14T15:07:26.714Z,38.23
2018-02-14T15:09:52.526Z,38.59
2018-02-14T15:12:18.337Z,38.55
2018-02-14T15:14:44.154Z,38.50
2018-02-14T15:17:09.967Z,38.85
2018-02-14T15:19:35.803Z,38.12
2018-02-14T15:22:02.655Z,37.87
2018-02-14T15:24:29.327Z,37.43
2018-02-14T15:26:56.142Z,38.00
2018-02-14T15:29:22.079Z,38.13
2018-02-14T15:31:47.886Z,38.25
2018-02-14T15:34:14.694Z,37.87
2018-02-14T15:36:41.334Z,38.06
2018-02-14T15:39:07.189Z,37.97
2018-02-14T15:41:33.034Z,38.67
2018-02-14T15:43:58.866Z,39.13
2018-02-14T15:46:25.527Z,38.94
2018-02-14T15:48:51.342Z,39.28
2018-02-14T15:51:17.266Z,38.98
2018-02-14T15:53:43.986Z,39.39
2018-02-14T15:56:10.712Z,39.09
2018-02-14T15:58:36.523Z,39.20
2018-02-14T16:01:02.335Z,39.20
2018-02-14T16:03:28.960Z,39.54
2018-02-14T16:05:54.811Z,38.64
2018-02-14T16:08:21.535Z,39.05
2018-02-14T16:10:47.350Z,38.76
2018-02-14T16:13:13.977Z,38.35
2018-02-14T16:15:39.800Z,39.18
2018-02-14T16:18:06.570Z,39.36
2018-02-14T16:20:33.304Z,39.07
2018-02-14T16:22:59.127Z,39.33
2018-02-14T16:25:24.935Z,39.43
2018-02-14T16:27:51.687Z,39.51
2018-02-14T16:30:17.493Z,39.38
2018-02-14T16:32:44.254Z,39.04
2018-02-14T16:35:11.069Z,38.96
2018-02-14T16:37:37.794Z,39.39
2018-02-14T16:40:04.573Z,39.47
2018-02-14T16:42:30.561Z,39.30
2018-02-14T16:44:57.351Z,39.68
2018-02-14T16:47:24.035Z,39.92
2018-02-14T16:49:50.854Z,39.69
2018-02-14T16:52:16.702Z,39.68
2018-02-14T16:54:43.355Z,39.17
2018-02-14T16:57:10.265Z,38.62
2018-02-14T16:59:36.075Z,38.80
2018-02-14T17:02:01.924Z,38.90
2018-02-14T17:04:27.741Z,38.76
2018-02-14T17:06:53.663Z,39.05
2018-02-14T17:09:19.480Z,38.87
2018-02-14T17:11:46.166Z,38.88
2018-02-14T17:14:11.985Z,38.51
2018-02-14T17:16:37.823Z,38.23
2018-02-14T17:19:04.569Z,38.19
2018-02-14T17:21:30.384Z,38.35
2018-02-14T17:23:57.066Z,38.08
2018-02-14T17:26:22.865Z,37.96
2018-02-14T17:28:48.673Z,38.45
2018-02-14T17:31:15.348Z,39.18
2018-02-14T17:33:41.198Z,40.07
2018-02-14T17:36:07.886Z,38.84
2018-02-14T17:38:33.706Z,39.08
2018-02-14T17:41:00.359Z,38.57
2018-02-14T17:43:26.171Z,38.25
2018-02-14T17:45:51.975Z,37.97
2018-02-14T17:48:18.722Z,37.86
2018-02-14T17:50:45.513Z,38.02
2018-02-14T17:53:11.338Z,37.92
2018-02-14T17:55:37.171Z,37.73
2018-02-14T17:58:03.947Z,37.69
2018-02-14T18:00:31.246Z,37.71
2018-02-14T18:02:57.149Z,37.70
2018-02-14T18:05:22.960Z,37.89
2018-02-14T18:07:48.765Z,37.97
2018-02-14T18:10:14.577Z,38.00
2018-02-14T18:12:40.387Z,37.56
2018-02-14T18:15:06.351Z,38.05
2018-02-14T18:17:32.159Z,37.74
2018-02-14T18:19:57.978Z,37.92
2018-02-14T18:22:24.790Z,37.77
2018-02-14T18:24:50.618Z,37.77
2018-02-14T18:27:16.435Z,38.60
2018-02-14T18:29:42.265Z,38.40
2018-02-14T18:32:08.111Z,37.98
2018-02-14T18:34:33.916Z,37.95
2018-02-14T18:36:59.902Z,38.01
2018-02-14T18:39:26.705Z,37.74
2018-02-14T18:41:52.509Z,37.80
2018-02-14T18:44:18.434Z,38.20
2018-02-14T18:46:44.317Z,38.03
2018-02-14T18:49:10.129Z,37.82
2018-02-14T18:51:35.933Z,37.86
2018-02-14T18:54:01.778Z,38.08
2018-02-14T18:56:27.580Z,37.96
2018-02-14T18:58:53.413Z,37.68
2018-02-14T19:01:19.213Z,38.00
2018-02-14T19:03:45.017Z,37.73
2018-02-14T19:06:12.997Z,37.62
2018-02-14T19:08:38.886Z,37.85
2018-02-14T19:11:08.316Z,37.52
2018-02-14T19:13:35.480Z,37.59
2018-02-14T19:16:01.475Z,37.55
2018-02-14T19:18:27.421Z,37.55
2018-02-14T19:20:53.259Z,37.55
2018-02-14T19:23:19.130Z,37.87
2018-02-14T19:25:44.938Z,37.71
2018-02-14T19:28:10.742Z,37.82
2018-02-14T19:30:36.537Z,37.69
2018-02-14T19:33:02.342Z,37.74
2018-02-14T19:35:28.154Z,37.52
2018-02-14T19:37:53.957Z,37.58
2018-02-14T19:40:19.794Z,37.89
2018-02-14T19:42:45.603Z,37.50
2018-02-14T19:45:12.417Z,37.71
2018-02-14T19:47:38.231Z,37.87
2018-02-14T19:50:04.997Z,37.57
2018-02-14T19:52:30.802Z,37.68
2018-02-14T19:54:56.674Z,37.67
2018-02-14T19:57:22.486Z,37.67
2018-02-14T19:59:49.317Z,37.73
2018-02-14T20:02:15.139Z,37.68
2018-02-14T20:04:40.946Z,37.81
2018-02-14T20:07:06.804Z,37.91
2018-02-14T20:09:32.621Z,37.97
2018-02-14T20:11:58.421Z,37.99
2018-02-14T20:14:24.233Z,38.16
2018-02-14T20:16:50.848Z,37.83
2018-02-14T20:19:17.514Z,37.77
2018-02-14T20:21:43.365Z,37.70
2018-02-14T20:24:09.181Z,37.63
2018-02-14T20:26:34.984Z,37.68
2018-02-14T20:29:00.819Z,37.80
2018-02-14T20:31:26.634Z,37.80
2018-02-14T20:33:52.515Z,37.62
2018-02-14T20:36:18.582Z,37.85
2018-02-14T20:38:44.581Z,37.47
2018-02-14T20:41:10.590Z,37.34
2018-02-14T20:43:37.345Z,37.69
2018-02-14T20:46:03.261Z,37.71
2018-02-14T20:48:29.129Z,37.60
2018-02-14T20:50:54.999Z,37.42
2018-02-14T20:53:20.822Z,37.76
2018-02-14T20:55:46.625Z,37.54
2018-02-14T20:58:12.439Z,37.49
2018-02-14T21:00:38.265Z,37.21
2018-02-14T21:03:04.077Z,37.37
2018-02-14T21:05:31.474Z,37.48
2018-02-14T21:07:57.274Z,37.56
2018-02-14T21:10:23.211Z,37.46
2018-02-14T21:12:49.017Z,37.42
2018-02-14T21:15:14.960Z,37.43
2018-02-14T21:17:40.773Z,37.58
2018-02-14T21:20:06.596Z,37.70
2018-02-14T21:22:32.469Z,37.46
2018-02-14T21:24:58.294Z,37.41
2018-02-14T21:27:24.097Z,37.45
2018-02-14T21:29:50.751Z,37.62
2018-02-14T21:32:16.565Z,37.57
2018-02-14T21:34:42.523Z,37.36
2018-02-14T21:37:08.450Z,37.95
2018-02-14T21:39:34.306Z,37.57
2018-02-14T21:42:17.418Z,37.88
2018-02-14T21:44:43.226Z,38.17
2018-02-14T21:47:09.826Z,37.76
2018-02-14T21:49:35.633Z,37.74
2018-02-14T21:52:01.444Z,37.92
2018-02-14T21:54:27.257Z,37.83
2018-02-14T21:56:53.062Z,37.84
2018-02-14T21:59:18.942Z,37.68
2018-02-14T22:01:44.782Z,37.92
2018-02-14T22:04:11.369Z,37.69
2018-02-14T22:06:37.173Z,38.03
2018-02-14T22:09:03.903Z,37.95
2018-02-14T22:11:30.702Z,37.66
2018-02-14T22:13:56.506Z,37.64
2018-02-14T22:16:22.446Z,37.70
2018-02-14T22:18:48.255Z,38.07
2018-02-14T22:21:14.056Z,38.04
2018-02-14T22:23:39.866Z,37.97
2018-02-14T22:26:07.605Z,37.67
2018-02-14T22:28:33.436Z,37.74
2018-02-14T22:30:59.453Z,38.17
2018-02-14T22:33:25.261Z,37.90
2018-02-14T22:35:51.073Z,38.04
2018-02-14T22:38:16.893Z,37.72
2018-02-14T22:40:42.846Z,38.09
2018-02-14T22:43:08.656Z,38.36
2018-02-14T22:45:34.474Z,38.13
2018-02-14T22:48:00.282Z,37.95
2018-02-14T22:50:26.147Z,37.92
2018-02-14T22:52:52.121Z,37.55
2018-02-14T22:55:18.025Z,38.62
2018-02-14T22:57:43.849Z,38.09
2018-02-14T23:00:09.673Z,37.94
2018-02-14T23:02:35.491Z,37.63
2018-02-14T23:05:01.309Z,37.90
2018-02-14T23:07:27.118Z,37.74
2018-02-14T23:09:53.001Z,37.65
2018-02-14T23:12:18.862Z,37.87
2018-02-14T23:14:44.797Z,38.36
2018-02-14T23:17:10.709Z,37.53
2018-02-14T23:19:36.575Z,37.73
2018-02-14T23:22:02.401Z,37.63
2018-02-14T23:24:28.214Z,37.37
2018-02-14T23:26:54.834Z,37.49
2018-02-14T23:29:21.564Z,37.85
2018-02-14T23:31:47.378Z,37.67
2018-02-14T23:34:13.182Z,37.52
2018-02-14T23:36:40.016Z,37.85
2018-02-14T23:39:05.846Z,37.36
2018-02-14T23:41:31.658Z,37.41
2018-02-14T23:43:57.453Z,37.17
2018-02-14T23:46:23.270Z,37.55
2018-02-14T23:48:49.094Z,37.56
2018-02-14T23:53:48.283Z,37.55
2018-02-14T23:56:14.911Z,37.71
2018-02-14T23:58:40.788Z,37.67
